Time;durP1;ratioP1;P1;durP2;ratioP2;P2;SDS_P1;SDS_P2;PMS_P1;PMS_P2;Temp;Humidity;BMP_temperature;BMP_pressure;BME280_temperature;BME280_humidity;BME280_pressure;Samples;Min_cycle;Max_cycle;Signal;HPM_P1;HPM_P2
2022/07/20 00:02:10;;;;;;;3.15;2.53;;;11.50;99.90;;;;;;5098682;28;20406;-89
2022/07/20 00:04:37;;;;;;;2.72;2.08;;;11.40;99.90;;;;;;5096509;28;20387;-88
2022/07/20 00:07:04;;;;;;;2.55;1.73;;;12.80;99.90;;;;;;5095446;28;20451;-86
2022/07/20 00:12:17;;;;;;;1.67;1.27;;;11.80;99.90;;;;;;5104035;28;20517;-87
2022/07/20 00:14:44;;;;;;;3.15;1.23;;;11.70;99.90;;;;;;5095699;28;20408;-88
2022/07/20 00:17:13;;;;;;;1.50;1.40;;;11.80;99.90;;;;;;5094941;28;20388;-86
2022/07/20 00:19:40;;;;;;;2.28;1.20;;;11.80;99.90;;;;;;5093168;28;20868;-86
2022/07/20 00:22:07;;;;;;;2.92;1.30;;;11.70;99.90;;;;;;5094864;28;20380;-87
2022/07/20 00:24:35;;;;;;;4.70;1.40;;;11.60;99.90;;;;;;5095901;28;20376;-86
2022/07/20 00:27:02;;;;;;;10.30;1.30;;;11.80;99.90;;;;;;5094969;28;20383;-87
2022/07/20 00:29:29;;;;;;;1.52;1.00;;;12.00;99.90;;;;;;5094557;28;20372;-88
2022/07/20 00:31:56;;;;;;;2.50;0.82;;;12.10;99.90;;;;;;5092975;28;20734;-87
2022/07/20 00:34:23;;;;;;;2.28;0.80;;;12.10;99.90;;;;;;5094552;28;20379;-86
2022/07/20 00:36:50;;;;;;;1.30;0.80;;;12.20;99.90;;;;;;5093824;28;20389;-87
2022/07/20 00:39:18;;;;;;;1.20;0.63;;;12.30;99.90;;;;;;5094514;28;20384;-87
2022/07/20 00:41:45;;;;;;;2.65;0.90;;;12.30;99.90;;;;;;5093857;28;20376;-88
2022/07/20 00:44:12;;;;;;;2.40;0.80;;;12.30;99.90;;;;;;5093618;28;20495;-87
2022/07/20 00:46:41;;;;;;;2.63;1.02;;;12.50;99.90;;;;;;5093646;28;20372;-86
2022/07/20 00:49:10;;;;;;;3.00;0.90;;;12.80;99.90;;;;;;5094232;28;20379;-87
2022/07/20 00:51:38;;;;;;;1.80;0.70;;;13.10;99.90;;;;;;5093922;28;20398;-89
2022/07/20 00:54:06;;;;;;;1.50;0.90;;;13.20;99.90;;;;;;5091609;28;20381;-88
2022/07/20 00:56:35;;;;;;;2.40;1.75;;;13.20;99.90;;;;;;5094540;28;20372;-90
2022/07/20 00:59:08;;;;;;;2.10;1.83;;;13.20;99.90;;;;;;5094168;28;20384;-88
2022/07/20 01:01:36;;;;;;;1.75;1.30;;;13.50;99.90;;;;;;5094476;28;20391;-90
2022/07/20 01:04:06;;;;;;;1.90;1.00;;;13.70;99.90;;;;;;5095063;28;20748;-90
2022/07/20 01:06:33;;;;;;;1.70;0.90;;;14.00;99.90;;;;;;5095037;28;20455;-90
2022/07/20 01:09:01;;;;;;;1.50;0.70;;;13.70;99.90;;;;;;5094122;28;20917;-89
2022/07/20 01:11:28;;;;;;;1.40;0.80;;;13.80;99.90;;;;;;5094620;28;20429;-91
2022/07/20 01:14:05;;;;;;;1.92;0.75;;;13.90;99.90;;;;;;5094760;28;20444;-91
2022/07/20 01:16:32;;;;;;;2.40;0.70;;;13.80;99.90;;;;;;5094371;28;20371;-90
2022/07/20 01:19:01;;;;;;;1.13;0.70;;;13.90;99.90;;;;;;5094784;28;20372;-91
2022/07/20 01:21:28;;;;;;;0.80;0.60;;;13.90;99.90;;;;;;5093855;28;20387;-91
2022/07/20 01:23:56;;;;;;;1.38;0.70;;;14.10;99.90;;;;;;5093392;28;20815;-90
2022/07/20 01:26:23;;;;;;;1.48;0.70;;;14.10;99.90;;;;;;5094418;28;20787;-88
2022/07/20 01:28:51;;;;;;;4.10;0.70;;;14.20;99.90;;;;;;5092762;28;20384;-88
2022/07/20 01:31:18;;;;;;;1.65;0.70;;;14.30;99.90;;;;;;5093619;28;20820;-91
2022/07/20 01:33:45;;;;;;;2.00;0.70;;;14.20;99.90;;;;;;5094955;28;20373;-92
2022/07/20 01:36:13;;;;;;;2.50;0.80;;;14.00;99.90;;;;;;5095225;28;20405;-89
2022/07/20 01:38:40;;;;;;;1.83;0.80;;;14.20;99.90;;;;;;5090230;28;20545;-90
2022/07/20 01:41:07;;;;;;;1.25;0.75;;;14.20;99.90;;;;;;5094877;28;20497;-95
2022/07/20 01:43:36;;;;;;;1.40;0.80;;;14.30;99.90;;;;;;5093837;28;20486;-90
2022/07/20 01:46:04;;;;;;;2.80;0.80;;;14.30;99.90;;;;;;5094387;28;20462;-89
2022/07/20 01:48:32;;;;;;;1.70;0.75;;;14.50;99.90;;;;;;5094264;28;20368;-89
2022/07/20 01:50:59;;;;;;;1.30;0.60;;;14.60;99.90;;;;;;5093427;28;20380;-94
2022/07/20 01:53:26;;;;;;;1.40;0.70;;;14.70;99.90;;;;;;5096455;28;20398;-92
2022/07/20 01:55:54;;;;;;;1.40;0.65;;;14.60;99.90;;;;;;5095189;28;20491;-89
2022/07/20 01:58:23;;;;;;;1.75;0.80;;;14.40;99.90;;;;;;5101969;28;20426;-89
2022/07/20 02:00:53;;;;;;;1.40;0.60;;;14.30;99.90;;;;;;5093385;28;20418;-89
2022/07/20 02:03:20;;;;;;;3.45;0.60;;;14.50;99.90;;;;;;5093844;28;20400;-91
2022/07/20 02:05:47;;;;;;;2.93;0.80;;;14.70;99.90;;;;;;5096438;28;20368;-93
2022/07/20 02:08:15;;;;;;;2.45;0.80;;;14.80;99.90;;;;;;5099075;28;20376;-90
2022/07/20 02:10:42;;;;;;;2.25;0.70;;;14.70;99.90;;;;;;5099487;28;20400;-95
2022/07/20 02:13:09;;;;;;;12.03;1.03;;;14.60;99.90;;;;;;5099433;28;20453;-92
2022/07/20 02:18:25;;;;;;;4.20;1.20;;;14.10;99.90;;;;;;5098795;28;20376;-91
2022/07/20 02:20:52;;;;;;;3.97;0.70;;;14.10;99.90;;;;;;5100369;28;20368;-91
2022/07/20 02:23:20;;;;;;;1.15;0.52;;;14.00;99.90;;;;;;5098412;28;20412;-91
2022/07/20 02:25:51;;;;;;;2.60;0.70;;;14.00;99.90;;;;;;5095625;28;20462;-92
2022/07/20 02:28:21;;;;;;;2.42;0.90;;;14.10;99.90;;;;;;5097550;28;20384;-91
2022/07/20 02:30:48;;;;;;;2.30;0.80;;;14.20;99.90;;;;;;5099886;28;20414;-92
2022/07/20 02:33:36;;;;;;;2.20;0.90;;;14.30;99.90;;;;;;5098580;28;20376;-91
2022/07/20 02:36:10;;;;;;;1.85;0.70;;;14.50;99.90;;;;;;5027322;28;20380;-92
2022/07/20 02:38:38;;;;;;;3.75;0.70;;;14.60;99.90;;;;;;5056249;28;20399;-92
2022/07/20 02:41:05;;;;;;;1.20;0.60;;;14.60;99.90;;;;;;5039142;28;20380;-92
2022/07/20 02:43:32;;;;;;;0.90;0.63;;;14.70;99.90;;;;;;5056027;28;20843;-92
2022/07/20 02:46:04;;;;;;;1.85;0.57;;;14.80;99.90;;;;;;5055983;28;20375;-93
2022/07/20 02:48:31;;;;;;;2.20;0.70;;;15.00;99.90;;;;;;5041334;28;20489;-93
2022/07/20 02:50:58;;;;;;;0.60;0.52;;;15.00;99.90;;;;;;5040025;28;20378;-92
2022/07/20 02:53:26;;;;;;;2.05;0.70;;;15.00;99.90;;;;;;5039784;28;20379;-92
2022/07/20 02:55:53;;;;;;;1.27;0.70;;;15.20;99.90;;;;;;5039754;28;20383;-91
2022/07/20 02:58:21;;;;;;;2.90;0.65;;;15.40;99.90;;;;;;5039494;28;20732;-93
2022/07/20 03:00:49;;;;;;;2.30;0.63;;;15.70;99.90;;;;;;5057666;28;20390;-92
2022/07/20 03:03:16;;;;;;;2.95;0.80;;;16.00;99.90;;;;;;5055032;28;20395;-90
2022/07/20 03:05:43;;;;;;;3.22;0.73;;;16.20;99.90;;;;;;5041121;28;20933;-91
2022/07/20 03:08:10;;;;;;;1.83;1.10;;;16.10;99.90;;;;;;5059627;28;20818;-90
2022/07/20 03:10:37;;;;;;;2.60;1.40;;;16.10;99.90;;;;;;5055847;28;20427;-91
2022/07/20 03:13:05;;;;;;;2.53;1.30;;;16.00;99.90;;;;;;5055303;28;20458;-91
2022/07/20 03:15:32;;;;;;;0.98;0.60;;;15.80;99.90;;;;;;5054087;28;20384;-89
2022/07/20 03:18:00;;;;;;;1.08;0.52;;;15.70;99.90;;;;;;5053191;28;20380;-91
2022/07/20 03:20:31;;;;;;;1.65;0.65;;;15.50;99.90;;;;;;5074842;28;20442;-90
2022/07/20 03:22:59;;;;;;;2.70;0.70;;;15.50;99.90;;;;;;5095991;28;20423;-89
2022/07/20 03:25:27;;;;;;;1.65;0.55;;;15.40;99.90;;;;;;5096020;28;20500;-89
2022/07/20 03:27:56;;;;;;;1.33;0.60;;;15.40;99.90;;;;;;5095971;28;20871;-91
2022/07/20 03:30:24;;;;;;;2.70;0.60;;;15.40;99.90;;;;;;5096149;28;20365;-90
2022/07/20 03:32:52;;;;;;;1.60;0.63;;;;;;;;;;5095833;28;20381;-91
2022/07/20 03:35:19;;;;;;;1.00;0.50;;;15.30;99.90;;;;;;5095702;28;20364;-89
2022/07/20 03:37:47;;;;;;;2.47;0.55;;;15.40;99.90;;;;;;5093322;28;20400;-90
2022/07/20 03:40:14;;;;;;;1.70;0.50;;;15.50;99.90;;;;;;5095819;28;20376;-89
2022/07/20 03:42:41;;;;;;;2.20;0.50;;;15.60;99.90;;;;;;5095266;28;20381;-89
2022/07/20 03:45:09;;;;;;;3.13;0.52;;;15.80;99.90;;;;;;5094902;28;20861;-89
2022/07/20 03:47:38;;;;;;;1.65;0.60;;;15.80;99.90;;;;;;5095180;28;20365;-88
2022/07/20 03:50:05;;;;;;;1.45;0.68;;;15.80;99.90;;;;;;5095447;28;20739;-90
2022/07/20 03:52:32;;;;;;;1.23;0.60;;;15.90;99.90;;;;;;5095486;28;20376;-91
2022/07/20 03:55:00;;;;;;;2.58;0.60;;;16.00;99.90;;;;;;5094646;28;20377;-90
2022/07/20 03:57:27;;;;;;;2.22;0.88;;;16.00;99.90;;;;;;5094182;28;20421;-90
2022/07/20 03:59:54;;;;;;;2.17;0.60;;;15.90;99.90;;;;;;5094768;28;20369;-90
2022/07/20 04:02:21;;;;;;;1.50;0.63;;;15.80;99.90;;;;;;5095254;28;20728;-91
2022/07/20 04:04:48;;;;;;;2.45;0.60;;;15.60;99.90;;;;;;5094034;28;20388;-91
2022/07/20 04:07:15;;;;;;;3.28;0.50;;;15.60;99.90;;;;;;5094878;28;20430;-89
2022/07/20 04:09:46;;;;;;;1.55;0.60;;;15.60;99.90;;;;;;5094862;28;20373;-90
2022/07/20 04:12:25;;;;;;;1.20;0.60;;;15.60;99.90;;;;;;5095232;28;20388;-90
2022/07/20 04:14:53;;;;;;;3.08;0.70;;;15.60;99.90;;;;;;5095032;28;20380;-90
2022/07/20 04:17:22;;;;;;;2.08;0.63;;;15.60;99.90;;;;;;5093065;28;20375;-90
2022/07/20 04:19:49;;;;;;;1.20;0.70;;;15.30;99.90;;;;;;5094169;28;20437;-90
2022/07/20 04:22:17;;;;;;;1.52;0.70;;;15.20;99.90;;;;;;5093733;28;20374;-90
2022/07/20 04:24:44;;;;;;;1.23;0.55;;;15.20;99.90;;;;;;5093764;28;20748;-90
2022/07/20 04:27:11;;;;;;;4.20;0.80;;;15.10;99.90;;;;;;5093741;28;20372;-91
2022/07/20 04:29:38;;;;;;;3.25;0.80;;;15.10;99.90;;;;;;5092718;28;20427;-90
2022/07/20 04:32:06;;;;;;;2.70;0.80;;;15.00;99.90;;;;;;5093599;28;20409;-91
2022/07/20 04:34:33;;;;;;;3.45;1.20;;;14.80;99.90;;;;;;5092390;28;20463;-92
2022/07/20 04:37:00;;;;;;;5.18;1.25;;;14.70;99.90;;;;;;5092267;28;20880;-90
2022/07/20 04:39:28;;;;;;;2.07;0.60;;;14.80;99.90;;;;;;5093809;28;20440;-91
2022/07/20 04:41:55;;;;;;;1.58;0.70;;;14.70;99.90;;;;;;5093339;28;20433;-90
2022/07/20 04:44:22;;;;;;;2.15;1.02;;;14.60;99.90;;;;;;5093902;28;20404;-92
2022/07/20 04:46:49;;;;;;;3.33;1.00;;;14.60;99.90;;;;;;5093560;28;20368;-90
2022/07/20 04:49:16;;;;;;;3.20;1.30;;;14.60;99.90;;;;;;5093964;28;20372;-90
2022/07/20 04:51:43;;;;;;;2.00;1.00;;;14.60;99.90;;;;;;5092043;28;20416;-95
2022/07/20 04:54:11;;;;;;;2.33;0.80;;;14.70;99.90;;;;;;5093460;28;20368;-90
2022/07/20 04:56:38;;;;;;;1.30;1.00;;;14.60;99.90;;;;;;5093291;28;20403;-90
2022/07/20 04:59:05;;;;;;;1.20;1.10;;;14.40;99.90;;;;;;5093079;28;20385;-91
2022/07/20 05:01:32;;;;;;;2.83;1.20;;;14.10;99.90;;;;;;5093231;28;20366;-90
2022/07/20 05:04:00;;;;;;;4.20;1.00;;;13.90;99.90;;;;;;5093029;28;20423;-90
2022/07/20 05:06:27;;;;;;;3.25;1.23;;;13.60;99.90;;;;;;5093023;28;20360;-90
2022/07/20 05:08:54;;;;;;;2.78;0.95;;;13.50;99.90;;;;;;5091513;28;20449;-91
2022/07/20 05:11:21;;;;;;;2.47;0.90;;;13.50;99.90;;;;;;5092954;28;20379;-92
2022/07/20 05:13:48;;;;;;;2.88;0.90;;;13.40;99.90;;;;;;5092827;28;20879;-91
2022/07/20 05:16:16;;;;;;;3.20;0.80;;;13.30;99.90;;;;;;5091412;28;20887;-91
2022/07/20 05:18:43;;;;;;;2.63;0.90;;;13.00;99.90;;;;;;5091442;28;20385;-92
2022/07/20 05:21:10;;;;;;;1.03;0.67;;;13.20;99.90;;;;;;5093036;28;20407;-92
2022/07/20 05:23:37;;;;;;;2.13;1.38;;;13.20;99.90;;;;;;5091300;28;20888;-90
2022/07/20 05:26:05;;;;;;;2.67;1.33;;;13.20;99.90;;;;;;5091305;28;20931;-93
2022/07/20 05:28:32;;;;;;;4.53;2.13;;;13.10;99.90;;;;;;5091070;28;20381;-90
2022/07/20 05:30:59;;;;;;;2.38;1.00;;;13.10;99.90;;;;;;5085745;28;20455;-92
2022/07/20 05:33:26;;;;;;;1.85;0.85;;;13.10;99.90;;;;;;5091099;28;20388;-92
2022/07/20 05:35:53;;;;;;;3.03;1.00;;;13.00;99.90;;;;;;5091199;28;20771;-91
2022/07/20 05:38:21;;;;;;;2.67;0.80;;;13.10;99.90;;;;;;5091015;28;20397;-91
2022/07/20 05:40:51;;;;;;;3.57;0.93;;;13.20;99.90;;;;;;5092606;28;20463;-95
2022/07/20 05:43:19;;;;;;;5.30;1.13;;;13.30;99.90;;;;;;5095320;28;20394;-91
2022/07/20 05:45:46;;;;;;;3.13;1.00;;;13.30;99.90;;;;;;5097837;28;20368;-89
2022/07/20 05:48:16;;;;;;;2.83;0.88;;;13.30;99.90;;;;;;5099508;28;20379;-90
2022/07/20 05:50:44;;;;;;;2.43;0.90;;;13.30;99.90;;;;;;5097688;28;20407;-91
2022/07/20 05:53:13;;;;;;;2.25;0.80;;;13.30;99.90;;;;;;5096478;28;20396;-89
2022/07/20 05:55:42;;;;;;;2.22;0.90;;;13.20;99.90;;;;;;5098169;28;20379;-88
2022/07/20 05:58:10;;;;;;;2.80;1.08;;;13.20;99.90;;;;;;5095525;28;20718;-87
2022/07/20 06:00:37;;;;;;;2.45;1.25;;;13.10;99.90;;;;;;5096521;28;20368;-94
2022/07/20 06:03:09;;;;;;;3.03;0.90;;;13.10;99.90;;;;;;5099134;28;20392;-87
2022/07/20 06:05:40;;;;;;;2.50;1.30;;;13.00;99.90;;;;;;5107231;28;20368;-87
2022/07/20 06:08:09;;;;;;;2.35;1.00;;;13.00;99.90;;;;;;5104388;28;20369;-91
2022/07/20 06:10:39;;;;;;;2.20;0.90;;;12.90;99.90;;;;;;5102932;28;20380;-93
2022/07/20 06:13:07;;;;;;;1.67;0.90;;;13.00;99.90;;;;;;5101504;28;20440;-95
2022/07/20 06:15:34;;;;;;;1.90;1.00;;;12.90;99.90;;;;;;5099318;28;20381;-92
2022/07/20 06:18:01;;;;;;;2.87;0.90;;;13.00;99.90;;;;;;5091813;28;20775;-89
2022/07/20 06:20:28;;;;;;;2.13;0.90;;;13.00;99.90;;;;;;5093000;28;20375;-92
2022/07/20 06:22:56;;;;;;;1.80;0.98;;;13.00;99.90;;;;;;5092924;28;20880;-92
2022/07/20 06:25:23;;;;;;;1.85;1.00;;;12.90;99.90;;;;;;5092571;28;20433;-92
2022/07/20 06:27:51;;;;;;;3.07;1.10;;;11.50;99.90;;;;;;5092157;28;20471;-91
2022/07/20 06:30:19;;;;;;;1.92;1.00;;;14.50;99.90;;;;;;5093805;28;20380;-92
2022/07/20 06:32:46;;;;;;;3.60;1.10;;;12.90;99.90;;;;;;5095380;28;20379;-89
2022/07/20 06:35:13;;;;;;;2.53;1.13;;;12.90;99.90;;;;;;5094058;28;20372;-92
2022/07/20 06:37:40;;;;;;;2.10;1.00;;;12.90;99.90;;;;;;5093844;28;20441;-90
2022/07/20 06:40:08;;;;;;;3.05;0.93;;;12.90;99.90;;;;;;5091380;28;20385;-91
2022/07/20 06:42:35;;;;;;;2.53;1.00;;;12.80;99.90;;;;;;5092520;28;20384;-90
2022/07/20 06:45:04;;;;;;;3.20;1.10;;;12.80;99.90;;;;;;5091021;28;20388;-91
2022/07/20 06:47:31;;;;;;;3.00;1.10;;;12.70;99.90;;;;;;5090878;28;20770;-92
2022/07/20 06:49:58;;;;;;;2.70;0.90;;;12.60;99.90;;;;;;5092142;28;20377;-89
2022/07/20 06:52:27;;;;;;;1.75;1.00;;;12.60;99.90;;;;;;5092857;28;20368;-92
2022/07/20 06:54:56;;;;;;;1.88;1.20;;;12.60;99.90;;;;;;5096763;28;20385;-90
2022/07/20 06:57:23;;;;;;;2.05;1.00;;;12.50;99.90;;;;;;5097046;28;20379;-93
2022/07/20 06:59:50;;;;;;;2.58;1.13;;;12.50;99.90;;;;;;5095741;28;20377;-94
2022/07/20 07:02:17;;;;;;;4.33;1.20;;;12.40;99.90;;;;;;5095903;28;20494;-92
2022/07/20 07:08:06;;;;;;;5.22;1.80;;;12.30;99.90;;;;;;5097890;28;20399;-94
2022/07/20 07:10:33;;;;;;;5.03;2.33;;;12.30;99.90;;;;;;5096582;28;20838;-91
2022/07/20 07:13:02;;;;;;;4.80;2.90;;;12.30;99.90;;;;;;5096273;28;20423;-91
2022/07/20 07:15:30;;;;;;;5.30;3.13;;;12.20;99.90;;;;;;5097002;28;20387;-91
2022/07/20 07:18:02;;;;;;;3.55;1.70;;;12.10;99.90;;;;;;5098333;28;20393;-91
2022/07/20 07:20:29;;;;;;;3.10;1.63;;;12.10;99.90;;;;;;5095117;28;20597;-92
2022/07/20 07:22:56;;;;;;;3.35;1.50;;;12.10;99.90;;;;;;5100184;28;20465;-89
2022/07/20 07:25:24;;;;;;;2.75;1.60;;;12.10;99.90;;;;;;5097613;28;20490;-92
2022/07/20 07:27:57;;;;;;;5.15;1.63;;;12.00;99.90;;;;;;5097495;28;20408;-88
2022/07/20 07:30:45;;;;;;;4.72;1.80;;;12.00;99.90;;;;;;5098349;28;20372;-95
2022/07/20 07:33:14;;;;;;;6.05;1.77;;;11.90;99.90;;;;;;5095126;28;20849;-88
2022/07/20 07:35:41;;;;;;;4.63;1.90;;;13.10;99.90;;;;;;5098838;28;20856;-88
2022/07/20 07:38:08;;;;;;;4.75;1.70;;;10.90;99.90;;;;;;5095940;28;20397;-87
2022/07/20 07:40:35;;;;;;;6.43;1.90;;;11.80;99.90;;;;;;5095140;28;20379;-88
2022/07/20 07:43:02;;;;;;;10.95;2.67;;;11.80;99.90;;;;;;5094616;28;20396;-87
2022/07/20 07:45:29;;;;;;;7.63;2.53;;;11.90;99.90;;;;;;5094563;28;20373;-87
2022/07/20 07:47:56;;;;;;;6.80;2.47;;;11.80;99.90;;;;;;5093115;28;20408;-87
2022/07/20 07:50:23;;;;;;;6.20;2.67;;;11.70;99.90;;;;;;5093033;28;20883;-89
2022/07/20 07:52:50;;;;;;;4.60;2.35;;;11.70;99.90;;;;;;5092980;28;20390;-91
2022/07/20 07:55:17;;;;;;;4.37;2.60;;;11.70;99.90;;;;;;5094715;28;20415;-89
2022/07/20 07:57:48;;;;;;;6.38;2.60;;;11.70;99.90;;;;;;5096990;28;20851;-92
2022/07/20 08:00:15;;;;;;;8.38;2.85;;;11.70;99.90;;;;;;5093913;28;20389;-88
2022/07/20 08:02:48;;;;;;;8.05;2.75;;;11.60;99.90;;;;;;5094996;28;20855;-90
2022/07/20 08:05:15;;;;;;;5.97;2.85;;;10.40;99.90;;;;;;5096050;28;20448;-92
2022/07/20 08:07:42;;;;;;;5.93;3.22;;;11.60;99.90;;;;;;5096641;28;20701;-88
2022/07/20 08:10:10;;;;;;;5.85;4.22;;;11.60;99.90;;;;;;5096666;28;20381;-93
2022/07/20 08:12:37;;;;;;;4.68;3.80;;;11.50;99.90;;;;;;5093765;28;20377;-88
2022/07/20 08:15:06;;;;;;;4.83;4.00;;;11.50;99.90;;;;;;5100337;28;20482;-91
2022/07/20 08:17:37;;;;;;;6.13;4.97;;;11.50;99.90;;;;;;5097688;28;20365;-95
2022/07/20 08:20:06;;;;;;;5.80;5.13;;;11.40;99.90;;;;;;5093692;28;20403;-90
2022/07/20 08:22:36;;;;;;;6.43;5.28;;;11.30;99.90;;;;;;5079947;28;20445;-94
2022/07/20 08:25:03;;;;;;;8.40;3.77;;;11.30;99.90;;;;;;5093912;28;20919;-90
2022/07/20 08:27:37;;;;;;;5.82;3.80;;;11.10;99.90;;;;;;5101704;28;20879;-92
2022/07/20 08:30:21;;;;;;;8.45;3.85;;;11.10;99.90;;;;;;5107767;28;20436;-93
2022/07/20 08:32:52;;;;;;;9.52;4.20;;;10.90;99.90;;;;;;5044658;28;20447;-93
2022/07/20 08:35:22;;;;;;;14.10;4.93;;;10.80;99.90;;;;;;5045055;28;20381;-96
2022/07/20 08:37:49;;;;;;;11.25;5.05;;;10.80;99.90;;;;;;5043354;28;20413;-93
2022/07/20 08:40:31;;;;;;;9.80;4.87;;;10.60;99.90;;;;;;5044632;28;20358;-92
2022/07/20 08:43:06;;;;;;;15.75;5.35;;;10.60;99.90;;;;;;5010310;28;20404;-92
2022/07/20 08:45:37;;;;;;;14.52;6.18;;;10.60;99.90;;;;;;5040775;28;20381;-92
2022/07/20 08:48:37;;;;;;;11.25;5.80;;;10.70;99.90;;;;;;5041356;28;20384;-92
2022/07/20 08:51:06;;;;;;;8.35;4.68;;;10.80;99.90;;;;;;5021930;28;20424;-93
2022/07/20 08:53:42;;;;;;;7.38;4.75;;;10.10;99.90;;;;;;5038114;28;20459;-92
2022/07/20 08:56:16;;;;;;;7.15;5.25;;;10.80;99.90;;;;;;5026876;28;20904;-95
2022/07/20 08:58:43;;;;;;;6.43;5.05;;;10.80;99.90;;;;;;5039920;28;20465;-92
2022/07/20 09:01:20;;;;;;;6.45;4.90;;;10.80;99.90;;;;;;5034577;28;20377;-92
2022/07/20 09:04:11;;;;;;;5.07;4.57;;;10.90;99.90;;;;;;5034781;28;20408;-93
2022/07/20 09:06:48;;;;;;;7.00;4.65;;;10.90;99.90;;;;;;5034619;28;20468;-93
2022/07/20 09:09:17;;;;;;;6.05;4.80;;;10.90;99.90;;;;;;5040692;28;20380;-93
2022/07/20 09:18:34;;;;;;;7.20;5.90;;;11.00;99.90;;;;;;5042859;28;20375;-95
2022/07/20 09:21:14;;;;;;;8.50;6.30;;;11.20;99.90;;;;;;5025023;28;20377;-91
2022/07/20 09:23:41;;;;;;;7.57;6.13;;;11.10;99.90;;;;;;5036086;28;20466;-90
2022/07/20 09:26:19;;;;;;;7.82;5.70;;;11.10;99.90;;;;;;5039901;28;20452;-90
2022/07/20 09:28:52;;;;;;;6.88;6.18;;;11.10;99.90;;;;;;5036349;28;20370;-90
2022/07/20 09:31:52;;;;;;;7.50;6.60;;;11.10;99.90;;;;;;5021092;28;20469;-94
2022/07/20 09:37:48;;;;;;;7.40;6.70;;;11.00;99.90;;;;;;5000649;28;20477;-92
2022/07/20 09:40:45;;;;;;;8.20;7.40;;;10.90;99.90;;;;;;4985130;28;20416;-89
2022/07/20 09:43:38;;;;;;;8.65;7.72;;;10.90;99.90;;;;;;5000331;28;20455;-90
2022/07/20 09:46:13;;;;;;;9.80;7.78;;;11.00;99.90;;;;;;4996991;28;20408;-91
2022/07/20 09:48:49;;;;;;;8.73;7.82;;;11.00;99.90;;;;;;4997921;28;20393;-95
2022/07/20 09:51:33;;;;;;;8.23;7.43;;;9.80;99.90;;;;;;4998895;28;20379;-96
2022/07/20 09:54:10;;;;;;;8.50;7.70;;;11.10;99.90;;;;;;5006812;28;20402;-95
2022/07/20 09:57:17;;;;;;;9.93;8.90;;;10.80;99.90;;;;;;5022938;28;20399;-95
2022/07/20 10:00:00;;;;;;;10.18;9.18;;;10.80;99.90;;;;;;5005363;28;20883;-95
2022/07/20 10:02:50;;;;;;;10.43;9.20;;;11.00;99.90;;;;;;5004695;28;20388;-94
2022/07/20 10:05:33;;;;;;;11.07;9.97;;;10.90;99.90;;;;;;5001832;28;20383;-95
2022/07/20 10:08:09;;;;;;;10.77;9.70;;;11.80;99.90;;;;;;5001520;28;20939;-94
2022/07/20 10:10:42;;;;;;;11.68;10.43;;;10.90;99.90;;;;;;5007275;28;20427;-94
2022/07/20 10:13:15;;;;;;;10.25;9.35;;;11.00;99.90;;;;;;5037832;28;20379;-95
2022/07/20 10:16:06;;;;;;;12.13;9.52;;;11.10;99.90;;;;;;5040376;28;20412;-94
2022/07/20 10:18:41;;;;;;;14.02;9.98;;;11.00;99.90;;;;;;5036792;28;20376;-95
2022/07/20 10:21:33;;;;;;;15.95;10.68;;;10.30;99.90;;;;;;5036417;28;20474;-96
2022/07/20 10:24:30;;;;;;;15.13;11.52;;;10.90;99.90;;;;;;5054725;28;20470;-94
2022/07/20 10:27:29;;;;;;;13.68;12.25;;;10.90;99.90;;;;;;5037055;28;20486;-94
2022/07/20 10:30:02;;;;;;;13.88;12.60;;;10.70;99.90;;;;;;5097927;28;20404;-95
2022/07/20 10:32:33;;;;;;;14.70;13.30;;;11.00;99.90;;;;;;5098094;28;20848;-93
2022/07/20 10:35:45;;;;;;;19.00;17.20;;;11.00;99.90;;;;;;5100933;28;20399;-95
2022/07/20 10:44:24;;;;;;;9.75;8.82;;;10.90;99.90;;;;;;5104366;28;20391;-91
2022/07/20 10:46:55;;;;;;;10.02;8.77;;;10.70;99.90;;;;;;5099944;28;20372;-96
2022/07/20 10:50:03;;;;;;;10.40;9.47;;;10.70;99.90;;;;;;5101150;28;20448;-94
2022/07/20 10:52:37;;;;;;;12.05;9.73;;;10.60;99.90;;;;;;5100240;28;20380;-96
2022/07/20 11:01:27;;;;;;;11.40;10.30;;;10.80;99.90;;;;;;5015474;28;20820;-94
2022/07/20 11:10:46;;;;;;;15.05;13.65;;;10.20;99.90;;;;;;4939572;29;20433;-91
2022/07/20 11:13:13;;;;;;;16.15;14.45;;;10.30;99.90;;;;;;4921508;29;20397;-89
2022/07/20 11:15:52;;;;;;;28.45;18.65;;;9.80;99.90;;;;;;4937322;29;20779;-90
2022/07/20 11:18:25;;;;;;;27.50;17.23;;;10.10;99.90;;;;;;4936335;29;20409;-90
2022/07/20 11:21:10;;;;;;;14.60;13.10;;;10.10;99.90;;;;;;4920143;29;20381;-91
2022/07/20 11:23:50;;;;;;;13.68;12.27;;;10.10;99.90;;;;;;4937508;29;20414;-94
2022/07/20 11:26:20;;;;;;;13.85;12.48;;;10.10;99.90;;;;;;4938416;29;20433;-92
2022/07/20 11:28:53;;;;;;;13.00;11.80;;;10.10;99.90;;;;;;4924556;29;20378;-91
2022/07/20 11:31:33;;;;;;;13.90;12.50;;;10.10;99.90;;;;;;4939179;29;20382;-92
2022/07/20 11:34:06;;;;;;;15.52;12.60;;;10.10;99.90;;;;;;4935156;28;20424;-94
2022/07/20 11:36:35;;;;;;;13.48;12.13;;;10.10;99.90;;;;;;5021702;28;20786;-92
2022/07/20 11:39:08;;;;;;;14.80;13.30;;;10.10;99.90;;;;;;5035796;28;20381;-92
2022/07/20 11:41:40;;;;;;;14.70;13.10;;;10.10;99.90;;;;;;5037081;28;20377;-93
2022/07/20 11:44:24;;;;;;;;;;;;;;;;;;;;;
2022/07/20 11:46:59;;;;;;;13.82;12.52;;;10.10;99.90;;;;;;5055053;28;20468;-90
2022/07/20 11:49:31;;;;;;;14.52;13.10;;;10.30;99.90;;;;;;5038988;28;20392;-94
2022/07/20 11:52:08;;;;;;;13.50;12.13;;;10.30;99.90;;;;;;5041572;28;20375;-94
2022/07/20 11:54:50;;;;;;;13.40;12.10;;;10.40;99.90;;;;;;5038308;28;20422;-95
2022/07/20 11:57:34;;;;;;;13.37;11.37;;;9.40;99.90;;;;;;5037928;28;20383;-96
2022/07/20 12:00:18;;;;;;;;;;;;;;;;;;;;;
2022/07/20 12:06:14;;;;;;;12.57;11.38;;;10.30;99.90;;;;;;4997386;28;20426;-93
2022/07/20 12:08:42;;;;;;;12.30;11.13;;;10.40;99.90;;;;;;4982497;28;20349;-95
2022/07/20 12:11:12;;;;;;;13.73;11.80;;;10.40;99.90;;;;;;4981339;28;20874;-96
2022/07/20 12:14:24;;;;;;;12.50;11.30;;;10.40;99.90;;;;;;4999165;28;20765;-95
2022/07/20 12:16:52;;;;;;;12.13;10.95;;;10.20;99.90;;;;;;4957741;29;20383;-93
2022/07/20 12:19:20;;;;;;;15.98;11.55;;;10.50;99.90;;;;;;4957215;29;20938;-93
2022/07/20 12:21:49;;;;;;;13.13;11.85;;;11.10;99.90;;;;;;4955554;28;20395;-94
2022/07/20 12:24:17;;;;;;;14.85;13.35;;;10.40;99.90;;;;;;4974715;28;20434;-94
2022/07/20 12:26:45;;;;;;;14.95;13.45;;;10.60;99.90;;;;;;5016813;28;20405;-94
2022/07/20 12:29:26;;;;;;;14.45;12.10;;;10.40;99.90;;;;;;4998187;28;20399;-93
2022/07/20 12:32:02;;;;;;;12.52;10.00;;;10.20;99.90;;;;;;5015996;28;20383;-94
2022/07/20 12:37:53;;;;;;;10.80;9.67;;;10.40;99.90;;;;;;5011358;28;20487;-94
2022/07/20 12:40:50;;;;;;;12.50;10.05;;;10.20;99.90;;;;;;5015099;28;20498;-94
2022/07/20 12:43:33;;;;;;;10.65;9.73;;;10.30;99.90;;;;;;4941260;29;20408;-93
2022/07/20 12:46:10;;;;;;;13.45;8.95;;;10.30;99.90;;;;;;4958379;29;20868;-93
2022/07/20 12:48:46;;;;;;;14.13;9.30;;;10.40;99.90;;;;;;4957214;29;20441;-92
2022/07/20 12:51:20;;;;;;;9.30;8.23;;;10.30;99.90;;;;;;4938683;29;20678;-91
2022/07/20 12:53:52;;;;;;;8.57;7.80;;;10.40;99.90;;;;;;4996879;28;20482;-91
2022/07/20 12:56:19;;;;;;;8.25;7.45;;;10.40;99.90;;;;;;5015240;28;20383;-91
2022/07/20 12:58:46;;;;;;;8.45;7.65;;;10.30;99.90;;;;;;5018385;28;20387;-93
2022/07/20 13:01:14;;;;;;;11.55;10.55;;;9.90;99.90;;;;;;5018250;28;20410;-92
2022/07/20 13:03:41;;;;;;;7.60;6.85;;;10.30;99.90;;;;;;5014845;28;20394;-90
2022/07/20 13:06:08;;;;;;;6.33;5.60;;;10.30;99.90;;;;;;5013849;28;20379;-92
2022/07/20 13:08:35;;;;;;;5.53;5.03;;;10.30;99.90;;;;;;5015327;28;20387;-92
2022/07/20 13:11:04;;;;;;;6.80;6.07;;;10.30;99.90;;;;;;4996331;28;20752;-89
2022/07/20 13:13:31;;;;;;;6.50;5.80;;;10.30;99.90;;;;;;5010811;28;20380;-92
2022/07/20 13:15:59;;;;;;;5.10;4.60;;;10.30;99.90;;;;;;5012811;28;20863;-90
2022/07/20 13:18:26;;;;;;;6.20;5.60;;;10.40;99.90;;;;;;5013679;28;20457;-91
2022/07/20 13:20:53;;;;;;;9.20;5.37;;;10.30;99.90;;;;;;5093802;28;20372;-87
2022/07/20 13:23:21;;;;;;;6.13;5.63;;;10.30;99.90;;;;;;5095519;28;20453;-89
2022/07/20 13:25:48;;;;;;;5.65;5.25;;;10.30;99.90;;;;;;5089982;28;20408;-92
2022/07/20 13:28:17;;;;;;;5.82;5.28;;;10.40;99.90;;;;;;5092696;28;20371;-88
2022/07/20 13:30:45;;;;;;;5.80;5.30;;;10.30;99.90;;;;;;5093860;28;20400;-91
2022/07/20 13:33:12;;;;;;;6.47;5.97;;;10.50;99.90;;;;;;5092906;28;20380;-89
2022/07/20 13:35:42;;;;;;;7.00;6.40;;;10.50;99.90;;;;;;5094458;28;20459;-92
2022/07/20 13:38:10;;;;;;;7.00;6.35;;;10.50;99.90;;;;;;5093148;28;20415;-91
2022/07/20 13:40:37;;;;;;;7.50;6.78;;;10.40;99.90;;;;;;5093680;28;20894;-92
2022/07/20 13:43:05;;;;;;;9.63;8.63;;;10.30;99.90;;;;;;5094059;28;20418;-92
2022/07/20 13:45:33;;;;;;;15.10;13.80;;;10.30;99.90;;;;;;5092274;28;20733;-89
2022/07/20 13:48:00;;;;;;;17.30;15.90;;;10.30;99.90;;;;;;5092892;28;20422;-90
2022/07/20 13:50:28;;;;;;;16.58;15.25;;;10.30;99.90;;;;;;5093175;28;20403;-89